sensor_id;sensor_type;location;lat;lon;timestamp;P1;durP1;ratioP1;P2;durP2;ratioP2
37771;SDS011;23610;59.380;24.642;2023-09-19T00:03:53;4.35;;;0.60;;
37771;SDS011;23610;59.380;24.642;2023-09-19T00:08:56;1.92;;;0.80;;
37771;SDS011;23610;59.380;24.642;2023-09-19T00:14:00;1.48;;;0.77;;
37771;SDS011;23610;59.380;24.642;2023-09-19T00:19:03;1.15;;;0.55;;
37771;SDS011;23610;59.380;24.642;2023-09-19T00:24:08;0.73;;;0.65;;
37771;SDS011;23610;59.380;24.642;2023-09-19T00:29:11;1.15;;;0.85;;
37771;SDS011;23610;59.380;24.642;2023-09-19T00:34:18;3.03;;;0.75;;
37771;SDS011;23610;59.380;24.642;2023-09-19T00:39:22;1.30;;;0.73;;
37771;SDS011;23610;59.380;24.642;2023-09-19T00:44:27;1.35;;;0.90;;
37771;SDS011;23610;59.380;24.642;2023-09-19T00:49:30;1.40;;;0.73;;
37771;SDS011;23610;59.380;24.642;2023-09-19T00:54:34;2.28;;;0.80;;
37771;SDS011;23610;59.380;24.642;2023-09-19T00:59:37;2.95;;;0.75;;
37771;SDS011;23610;59.380;24.642;2023-09-19T01:04:40;1.58;;;0.93;;
37771;SDS011;23610;59.380;24.642;2023-09-19T01:09:44;0.80;;;0.70;;
37771;SDS011;23610;59.380;24.642;2023-09-19T01:14:55;3.53;;;2.08;;
37771;SDS011;23610;59.380;24.642;2023-09-19T01:20:11;1.00;;;0.60;;
37771;SDS011;23610;59.380;24.642;2023-09-19T01:30:51;1.25;;;1.10;;
37771;SDS011;23610;59.380;24.642;2023-09-19T01:36:03;2.17;;;0.85;;
37771;SDS011;23610;59.380;24.642;2023-09-19T01:41:09;3.13;;;0.93;;
37771;SDS011;23610;59.380;24.642;2023-09-19T01:46:18;3.80;;;1.45;;
37771;SDS011;23610;59.380;24.642;2023-09-19T01:51:32;1.35;;;1.08;;
37771;SDS011;23610;59.380;24.642;2023-09-19T01:57:09;3.08;;;0.90;;
37771;SDS011;23610;59.380;24.642;2023-09-19T02:02:30;1.67;;;0.93;;
37771;SDS011;23610;59.380;24.642;2023-09-19T02:07:33;1.85;;;0.93;;
37771;SDS011;23610;59.380;24.642;2023-09-19T02:12:39;1.23;;;0.73;;
37771;SDS011;23610;59.380;24.642;2023-09-19T02:17:45;1.25;;;0.88;;
37771;SDS011;23610;59.380;24.642;2023-09-19T02:22:47;1.38;;;0.90;;
37771;SDS011;23610;59.380;24.642;2023-09-19T02:27:51;6.07;;;1.20;;
37771;SDS011;23610;59.380;24.642;2023-09-19T02:32:57;2.75;;;1.05;;
37771;SDS011;23610;59.380;24.642;2023-09-19T02:38:03;2.17;;;1.00;;
37771;SDS011;23610;59.380;24.642;2023-09-19T02:48:11;1.80;;;1.15;;
37771;SDS011;23610;59.380;24.642;2023-09-19T02:53:14;3.95;;;0.95;;
37771;SDS011;23610;59.380;24.642;2023-09-19T02:58:16;1.98;;;1.13;;
37771;SDS011;23610;59.380;24.642;2023-09-19T03:03:20;1.75;;;1.05;;
37771;SDS011;23610;59.380;24.642;2023-09-19T03:08:24;2.05;;;1.00;;
37771;SDS011;23610;59.380;24.642;2023-09-19T03:13:27;2.28;;;1.33;;
37771;SDS011;23610;59.380;24.642;2023-09-19T03:18:36;2.05;;;1.35;;
37771;SDS011;23610;59.380;24.642;2023-09-19T03:23:38;3.25;;;1.00;;
37771;SDS011;23610;59.380;24.642;2023-09-19T03:28:42;0.70;;;0.70;;
37771;SDS011;23610;59.380;24.642;2023-09-19T03:33:45;1.27;;;1.02;;
37771;SDS011;23610;59.380;24.642;2023-09-19T03:38:48;1.27;;;0.95;;
37771;SDS011;23610;59.380;24.642;2023-09-19T03:43:51;3.00;;;1.20;;
37771;SDS011;23610;59.380;24.642;2023-09-19T03:48:55;2.22;;;1.38;;
37771;SDS011;23610;59.380;24.642;2023-09-19T03:53:57;4.07;;;1.13;;
37771;SDS011;23610;59.380;24.642;2023-09-19T03:59:00;1.58;;;1.40;;
37771;SDS011;23610;59.380;24.642;2023-09-19T04:04:04;2.17;;;1.65;;
37771;SDS011;23610;59.380;24.642;2023-09-19T04:09:10;4.68;;;1.17;;
37771;SDS011;23610;59.380;24.642;2023-09-19T04:14:16;1.65;;;1.52;;
37771;SDS011;23610;59.380;24.642;2023-09-19T04:19:18;5.30;;;1.97;;
37771;SDS011;23610;59.380;24.642;2023-09-19T04:24:24;1.98;;;1.60;;
37771;SDS011;23610;59.380;24.642;2023-09-19T04:29:26;2.20;;;1.45;;
37771;SDS011;23610;59.380;24.642;2023-09-19T04:34:30;2.90;;;1.60;;
37771;SDS011;23610;59.380;24.642;2023-09-19T04:39:33;1.95;;;1.23;;
37771;SDS011;23610;59.380;24.642;2023-09-19T04:44:35;3.00;;;1.63;;
37771;SDS011;23610;59.380;24.642;2023-09-19T04:49:39;5.00;;;1.80;;
37771;SDS011;23610;59.380;24.642;2023-09-19T04:54:42;2.60;;;1.90;;
37771;SDS011;23610;59.380;24.642;2023-09-19T04:59:44;4.55;;;1.95;;
37771;SDS011;23610;59.380;24.642;2023-09-19T05:04:47;5.00;;;2.38;;
37771;SDS011;23610;59.380;24.642;2023-09-19T05:09:52;3.65;;;2.20;;
37771;SDS011;23610;59.380;24.642;2023-09-19T05:14:54;5.30;;;1.90;;
37771;SDS011;23610;59.380;24.642;2023-09-19T05:19:57;3.53;;;2.28;;
37771;SDS011;23610;59.380;24.642;2023-09-19T05:25:00;7.38;;;2.58;;
37771;SDS011;23610;59.380;24.642;2023-09-19T05:30:07;3.78;;;2.60;;
37771;SDS011;23610;59.380;24.642;2023-09-19T05:35:11;7.70;;;2.78;;
37771;SDS011;23610;59.380;24.642;2023-09-19T05:40:14;2.50;;;2.30;;
37771;SDS011;23610;59.380;24.642;2023-09-19T05:45:17;8.63;;;3.25;;
37771;SDS011;23610;59.380;24.642;2023-09-19T05:50:26;3.78;;;3.08;;
37771;SDS011;23610;59.380;24.642;2023-09-19T05:55:29;9.73;;;5.13;;
37771;SDS011;23610;59.380;24.642;2023-09-19T06:00:31;4.22;;;3.75;;
37771;SDS011;23610;59.380;24.642;2023-09-19T06:05:36;9.67;;;4.43;;
37771;SDS011;23610;59.380;24.642;2023-09-19T06:10:42;5.55;;;3.80;;
37771;SDS011;23610;59.380;24.642;2023-09-19T06:15:45;7.40;;;4.22;;
37771;SDS011;23610;59.380;24.642;2023-09-19T06:20:48;6.70;;;4.53;;
37771;SDS011;23610;59.380;24.642;2023-09-19T06:25:52;5.10;;;4.23;;
37771;SDS011;23610;59.380;24.642;2023-09-19T06:30:56;6.22;;;4.60;;
37771;SDS011;23610;59.380;24.642;2023-09-19T06:35:58;6.90;;;5.07;;
37771;SDS011;23610;59.380;24.642;2023-09-19T06:41:02;6.18;;;4.57;;
37771;SDS011;23610;59.380;24.642;2023-09-19T06:46:09;7.03;;;4.97;;
37771;SDS011;23610;59.380;24.642;2023-09-19T06:51:14;8.32;;;5.13;;
37771;SDS011;23610;59.380;24.642;2023-09-19T06:56:18;11.45;;;7.00;;
37771;SDS011;23610;59.380;24.642;2023-09-19T07:01:21;7.90;;;6.13;;
37771;SDS011;23610;59.380;24.642;2023-09-19T07:06:23;10.00;;;7.22;;
37771;SDS011;23610;59.380;24.642;2023-09-19T07:11:26;7.78;;;5.40;;
37771;SDS011;23610;59.380;24.642;2023-09-19T07:16:29;14.27;;;7.47;;
37771;SDS011;23610;59.380;24.642;2023-09-19T07:21:32;10.82;;;6.10;;
37771;SDS011;23610;59.380;24.642;2023-09-19T07:31:39;16.65;;;10.15;;
37771;SDS011;23610;59.380;24.642;2023-09-19T07:36:42;12.77;;;7.70;;
37771;SDS011;23610;59.380;24.642;2023-09-19T07:41:45;11.57;;;6.18;;
37771;SDS011;23610;59.380;24.642;2023-09-19T07:46:48;8.93;;;6.03;;
37771;SDS011;23610;59.380;24.642;2023-09-19T07:51:52;10.13;;;6.78;;
37771;SDS011;23610;59.380;24.642;2023-09-19T07:56:56;11.48;;;5.63;;
37771;SDS011;23610;59.380;24.642;2023-09-19T08:01:59;8.25;;;6.93;;
37771;SDS011;23610;59.380;24.642;2023-09-19T08:07:02;7.78;;;6.18;;
37771;SDS011;23610;59.380;24.642;2023-09-19T08:12:06;8.57;;;6.18;;
37771;SDS011;23610;59.380;24.642;2023-09-19T08:17:11;11.43;;;6.88;;
37771;SDS011;23610;59.380;24.642;2023-09-19T08:22:14;8.00;;;6.53;;
37771;SDS011;23610;59.380;24.642;2023-09-19T08:27:18;8.65;;;6.60;;
37771;SDS011;23610;59.380;24.642;2023-09-19T08:32:21;7.38;;;6.03;;
37771;SDS011;23610;59.380;24.642;2023-09-19T08:42:28;13.73;;;8.02;;
37771;SDS011;23610;59.380;24.642;2023-09-19T08:47:34;9.02;;;7.07;;
37771;SDS011;23610;59.380;24.642;2023-09-19T08:52:49;10.13;;;7.65;;
37771;SDS011;23610;59.380;24.642;2023-09-19T08:58:06;8.43;;;6.65;;
37771;SDS011;23610;59.380;24.642;2023-09-19T09:03:14;10.93;;;7.90;;
37771;SDS011;23610;59.380;24.642;2023-09-19T09:08:20;10.07;;;7.70;;
37771;SDS011;23610;59.380;24.642;2023-09-19T09:13:24;10.25;;;6.40;;
37771;SDS011;23610;59.380;24.642;2023-09-19T09:18:28;10.30;;;7.40;;
37771;SDS011;23610;59.380;24.642;2023-09-19T09:23:31;10.60;;;6.63;;
37771;SDS011;23610;59.380;24.642;2023-09-19T09:28:46;9.52;;;6.70;;
37771;SDS011;23610;59.380;24.642;2023-09-19T09:33:56;12.20;;;7.70;;
37771;SDS011;23610;59.380;24.642;2023-09-19T09:38:59;7.53;;;6.53;;
37771;SDS011;23610;59.380;24.642;2023-09-19T09:44:18;11.75;;;8.45;;
37771;SDS011;23610;59.380;24.642;2023-09-19T09:49:25;8.85;;;7.10;;
37771;SDS011;23610;59.380;24.642;2023-09-19T09:54:33;8.82;;;7.93;;
37771;SDS011;23610;59.380;24.642;2023-09-19T09:59:58;9.10;;;7.15;;
37771;SDS011;23610;59.380;24.642;2023-09-19T10:05:18;8.95;;;7.75;;
37771;SDS011;23610;59.380;24.642;2023-09-19T10:16:01;12.60;;;7.93;;
37771;SDS011;23610;59.380;24.642;2023-09-19T10:21:17;12.23;;;8.27;;
37771;SDS011;23610;59.380;24.642;2023-09-19T10:26:27;14.52;;;8.75;;
37771;SDS011;23610;59.380;24.642;2023-09-19T10:31:33;10.32;;;8.43;;
37771;SDS011;23610;59.380;24.642;2023-09-19T10:36:38;10.85;;;8.07;;
37771;SDS011;23610;59.380;24.642;2023-09-19T10:42:06;9.20;;;8.27;;
37771;SDS011;23610;59.380;24.642;2023-09-19T10:47:19;11.73;;;8.85;;
37771;SDS011;23610;59.380;24.642;2023-09-19T10:52:27;13.82;;;9.23;;
37771;SDS011;23610;59.380;24.642;2023-09-19T10:57:33;22.47;;;10.30;;
37771;SDS011;23610;59.380;24.642;2023-09-19T11:02:36;11.35;;;8.65;;
37771;SDS011;23610;59.380;24.642;2023-09-19T11:13:27;15.75;;;8.77;;
37771;SDS011;23610;59.380;24.642;2023-09-19T11:23:51;12.90;;;8.35;;
37771;SDS011;23610;59.380;24.642;2023-09-19T11:29:28;11.43;;;9.02;;
37771;SDS011;23610;59.380;24.642;2023-09-19T11:50:58;12.15;;;9.48;;
37771;SDS011;23610;59.380;24.642;2023-09-19T11:56:08;11.40;;;9.18;;
37771;SDS011;23610;59.380;24.642;2023-09-19T12:01:12;11.30;;;9.27;;
37771;SDS011;23610;59.380;24.642;2023-09-19T12:06:21;11.48;;;8.52;;
37771;SDS011;23610;59.380;24.642;2023-09-19T12:11:30;10.32;;;8.70;;
37771;SDS011;23610;59.380;24.642;2023-09-19T12:16:37;16.23;;;9.55;;
37771;SDS011;23610;59.380;24.642;2023-09-19T12:21:40;11.95;;;9.48;;
37771;SDS011;23610;59.380;24.642;2023-09-19T12:26:43;12.27;;;9.30;;
37771;SDS011;23610;59.380;24.642;2023-09-19T12:31:49;11.75;;;9.25;;
37771;SDS011;23610;59.380;24.642;2023-09-19T12:37:10;11.88;;;9.15;;
37771;SDS011;23610;59.380;24.642;2023-09-19T12:42:29;13.52;;;9.52;;
37771;SDS011;23610;59.380;24.642;2023-09-19T12:47:39;14.75;;;10.20;;
37771;SDS011;23610;59.380;24.642;2023-09-19T13:08:34;12.23;;;10.15;;
37771;SDS011;23610;59.380;24.642;2023-09-19T13:24:54;20.30;;;11.57;;
37771;SDS011;23610;59.380;24.642;2023-09-19T13:29:59;13.73;;;11.35;;
37771;SDS011;23610;59.380;24.642;2023-09-19T13:35:01;22.58;;;11.35;;
37771;SDS011;23610;59.380;24.642;2023-09-19T13:40:10;16.27;;;12.02;;
37771;SDS011;23610;59.380;24.642;2023-09-19T13:45:15;18.13;;;11.88;;
37771;SDS011;23610;59.380;24.642;2023-09-19T13:50:19;13.85;;;10.93;;
37771;SDS011;23610;59.380;24.642;2023-09-19T13:55:25;19.90;;;11.43;;
37771;SDS011;23610;59.380;24.642;2023-09-19T14:00:28;17.83;;;12.70;;
37771;SDS011;23610;59.380;24.642;2023-09-19T14:05:31;27.10;;;15.48;;
37771;SDS011;23610;59.380;24.642;2023-09-19T14:10:34;27.98;;;17.15;;
37771;SDS011;23610;59.380;24.642;2023-09-19T14:15:37;27.45;;;16.92;;
37771;SDS011;23610;59.380;24.642;2023-09-19T14:20:39;27.77;;;20.52;;
37771;SDS011;23610;59.380;24.642;2023-09-19T14:25:43;86.40;;;70.28;;
37771;SDS011;23610;59.380;24.642;2023-09-19T14:30:45;27.35;;;16.73;;
37771;SDS011;23610;59.380;24.642;2023-09-19T14:35:48;22.25;;;16.77;;
37771;SDS011;23610;59.380;24.642;2023-09-19T14:40:58;21.02;;;14.25;;
37771;SDS011;23610;59.380;24.642;2023-09-19T14:46:06;22.80;;;16.67;;
37771;SDS011;23610;59.380;24.642;2023-09-19T14:51:12;22.73;;;17.73;;
37771;SDS011;23610;59.380;24.642;2023-09-19T14:56:16;20.90;;;16.15;;
37771;SDS011;23610;59.380;24.642;2023-09-19T15:01:21;23.70;;;14.68;;
37771;SDS011;23610;59.380;24.642;2023-09-19T15:06:24;16.73;;;13.02;;
37771;SDS011;23610;59.380;24.642;2023-09-19T15:11:28;16.80;;;13.00;;
37771;SDS011;23610;59.380;24.642;2023-09-19T15:16:30;16.02;;;12.20;;
37771;SDS011;23610;59.380;24.642;2023-09-19T15:21:37;22.83;;;11.32;;
37771;SDS011;23610;59.380;24.642;2023-09-19T15:26:58;14.38;;;9.80;;
37771;SDS011;23610;59.380;24.642;2023-09-19T15:32:58;15.05;;;10.98;;
37771;SDS011;23610;59.380;24.642;2023-09-19T15:38:14;15.18;;;10.38;;
37771;SDS011;23610;59.380;24.642;2023-09-19T15:43:17;18.60;;;10.73;;
37771;SDS011;23610;59.380;24.642;2023-09-19T15:48:27;13.77;;;10.88;;
37771;SDS011;23610;59.380;24.642;2023-09-19T15:53:44;12.85;;;10.73;;
37771;SDS011;23610;59.380;24.642;2023-09-19T15:59:11;14.70;;;9.80;;
37771;SDS011;23610;59.380;24.642;2023-09-19T16:04:15;14.48;;;11.23;;
37771;SDS011;23610;59.380;24.642;2023-09-19T16:09:20;17.52;;;10.68;;
37771;SDS011;23610;59.380;24.642;2023-09-19T16:14:38;15.77;;;10.85;;
37771;SDS011;23610;59.380;24.642;2023-09-19T16:20:09;16.05;;;10.57;;
37771;SDS011;23610;59.380;24.642;2023-09-19T16:25:21;16.58;;;10.93;;
37771;SDS011;23610;59.380;24.642;2023-09-19T16:30:28;15.00;;;12.50;;
37771;SDS011;23610;59.380;24.642;2023-09-19T16:35:39;16.85;;;11.57;;
37771;SDS011;23610;59.380;24.642;2023-09-19T16:40:53;17.08;;;11.05;;
37771;SDS011;23610;59.380;24.642;2023-09-19T16:46:03;16.10;;;11.18;;
37771;SDS011;23610;59.380;24.642;2023-09-19T16:51:18;19.27;;;11.00;;
37771;SDS011;23610;59.380;24.642;2023-09-19T16:56:22;13.05;;;10.13;;
37771;SDS011;23610;59.380;24.642;2023-09-19T17:01:25;15.63;;;9.05;;
37771;SDS011;23610;59.380;24.642;2023-09-19T17:06:28;14.60;;;10.15;;
37771;SDS011;23610;59.380;24.642;2023-09-19T17:11:55;22.60;;;11.45;;
37771;SDS011;23610;59.380;24.642;2023-09-19T17:17:16;22.70;;;11.02;;
37771;SDS011;23610;59.380;24.642;2023-09-19T17:27:24;15.90;;;7.10;;
37771;SDS011;23610;59.380;24.642;2023-09-19T17:32:27;11.75;;;6.68;;
37771;SDS011;23610;59.380;24.642;2023-09-19T17:37:32;13.85;;;7.13;;
37771;SDS011;23610;59.380;24.642;2023-09-19T17:47:42;15.63;;;6.43;;
37771;SDS011;23610;59.380;24.642;2023-09-19T17:52:45;11.63;;;5.53;;
37771;SDS011;23610;59.380;24.642;2023-09-19T17:57:48;10.88;;;5.65;;
37771;SDS011;23610;59.380;24.642;2023-09-19T18:02:54;11.77;;;4.75;;
37771;SDS011;23610;59.380;24.642;2023-09-19T18:07:57;8.48;;;4.68;;
37771;SDS011;23610;59.380;24.642;2023-09-19T18:13:00;7.82;;;3.80;;
37771;SDS011;23610;59.380;24.642;2023-09-19T18:18:03;6.00;;;3.65;;
37771;SDS011;23610;59.380;24.642;2023-09-19T18:23:11;15.75;;;4.25;;
37771;SDS011;23610;59.380;24.642;2023-09-19T18:28:14;9.50;;;3.83;;
37771;SDS011;23610;59.380;24.642;2023-09-19T18:33:17;13.48;;;3.75;;
37771;SDS011;23610;59.380;24.642;2023-09-19T18:38:20;7.80;;;3.38;;
37771;SDS011;23610;59.380;24.642;2023-09-19T18:43:23;6.38;;;2.50;;
37771;SDS011;23610;59.380;24.642;2023-09-19T18:48:26;8.65;;;3.00;;
37771;SDS011;23610;59.380;24.642;2023-09-19T18:53:29;6.75;;;2.92;;
37771;SDS011;23610;59.380;24.642;2023-09-19T19:03:37;7.35;;;3.10;;
37771;SDS011;23610;59.380;24.642;2023-09-19T19:08:43;10.18;;;2.85;;
37771;SDS011;23610;59.380;24.642;2023-09-19T19:13:51;11.95;;;3.45;;
37771;SDS011;23610;59.380;24.642;2023-09-19T19:19:30;13.02;;;3.03;;
37771;SDS011;23610;59.380;24.642;2023-09-19T19:25:06;13.60;;;4.03;;
37771;SDS011;23610;59.380;24.642;2023-09-19T19:30:11;5.45;;;2.10;;
37771;SDS011;23610;59.380;24.642;2023-09-19T19:35:13;14.43;;;2.80;;
37771;SDS011;23610;59.380;24.642;2023-09-19T19:40:18;10.50;;;3.13;;
37771;SDS011;23610;59.380;24.642;2023-09-19T19:45:21;6.93;;;3.17;;
37771;SDS011;23610;59.380;24.642;2023-09-19T19:50:24;5.80;;;2.25;;
37771;SDS011;23610;59.380;24.642;2023-09-19T19:55:27;9.27;;;3.15;;
37771;SDS011;23610;59.380;24.642;2023-09-19T20:00:29;18.15;;;3.53;;
37771;SDS011;23610;59.380;24.642;2023-09-19T20:05:36;12.60;;;3.05;;
37771;SDS011;23610;59.380;24.642;2023-09-19T20:10:40;14.95;;;3.42;;
37771;SDS011;23610;59.380;24.642;2023-09-19T20:15:53;8.63;;;2.58;;
37771;SDS011;23610;59.380;24.642;2023-09-19T20:20:57;8.27;;;2.42;;
37771;SDS011;23610;59.380;24.642;2023-09-19T20:26:07;10.90;;;2.97;;
37771;SDS011;23610;59.380;24.642;2023-09-19T20:36:16;10.93;;;2.90;;
37771;SDS011;23610;59.380;24.642;2023-09-19T20:41:19;7.53;;;2.22;;
37771;SDS011;23610;59.380;24.642;2023-09-19T20:46:21;7.07;;;2.58;;
37771;SDS011;23610;59.380;24.642;2023-09-19T20:51:25;11.82;;;2.80;;
37771;SDS011;23610;59.380;24.642;2023-09-19T20:56:28;7.38;;;2.45;;
37771;SDS011;23610;59.380;24.642;2023-09-19T21:01:33;10.32;;;2.75;;
37771;SDS011;23610;59.380;24.642;2023-09-19T21:06:37;7.93;;;2.40;;
37771;SDS011;23610;59.380;24.642;2023-09-19T21:11:39;10.40;;;3.63;;
37771;SDS011;23610;59.380;24.642;2023-09-19T21:16:42;9.00;;;3.35;;
37771;SDS011;23610;59.380;24.642;2023-09-19T21:21:45;10.20;;;2.50;;
37771;SDS011;23610;59.380;24.642;2023-09-19T21:26:50;10.65;;;3.90;;
37771;SDS011;23610;59.380;24.642;2023-09-19T21:31:53;10.55;;;2.83;;
37771;SDS011;23610;59.380;24.642;2023-09-19T21:36:56;11.38;;;4.30;;
37771;SDS011;23610;59.380;24.642;2023-09-19T21:41:58;10.27;;;3.35;;
37771;SDS011;23610;59.380;24.642;2023-09-19T21:47:02;11.32;;;3.53;;
37771;SDS011;23610;59.380;24.642;2023-09-19T21:52:05;12.45;;;2.80;;
37771;SDS011;23610;59.380;24.642;2023-09-19T21:57:08;8.60;;;3.22;;
37771;SDS011;23610;59.380;24.642;2023-09-19T22:02:10;14.10;;;3.67;;
37771;SDS011;23610;59.380;24.642;2023-09-19T22:07:13;12.55;;;3.05;;
37771;SDS011;23610;59.380;24.642;2023-09-19T22:12:15;10.82;;;2.72;;
37771;SDS011;23610;59.380;24.642;2023-09-19T22:17:18;11.02;;;2.58;;
37771;SDS011;23610;59.380;24.642;2023-09-19T22:22:21;17.70;;;3.55;;
37771;SDS011;23610;59.380;24.642;2023-09-19T22:27:26;20.48;;;2.92;;
37771;SDS011;23610;59.380;24.642;2023-09-19T22:32:29;10.57;;;2.78;;
37771;SDS011;23610;59.380;24.642;2023-09-19T22:37:35;13.20;;;3.55;;
37771;SDS011;23610;59.380;24.642;2023-09-19T22:42:38;10.95;;;3.72;;
37771;SDS011;23610;59.380;24.642;2023-09-19T22:47:42;9.90;;;2.70;;
37771;SDS011;23610;59.380;24.642;2023-09-19T22:52:45;12.68;;;3.45;;
37771;SDS011;23610;59.380;24.642;2023-09-19T22:57:52;8.73;;;1.83;;
37771;SDS011;23610;59.380;24.642;2023-09-19T23:02:57;13.65;;;2.65;;
37771;SDS011;23610;59.380;24.642;2023-09-19T23:08:00;7.82;;;2.85;;
37771;SDS011;23610;59.380;24.642;2023-09-19T23:13:08;8.50;;;2.53;;
37771;SDS011;23610;59.380;24.642;2023-09-19T23:18:11;15.68;;;3.05;;
37771;SDS011;23610;59.380;24.642;2023-09-19T23:23:14;8.43;;;1.95;;
37771;SDS011;23610;59.380;24.642;2023-09-19T23:28:22;8.50;;;2.63;;
37771;SDS011;23610;59.380;24.642;2023-09-19T23:33:25;11.75;;;2.30;;
37771;SDS011;23610;59.380;24.642;2023-09-19T23:38:28;10.85;;;1.80;;
37771;SDS011;23610;59.380;24.642;2023-09-19T23:43:32;9.93;;;2.27;;
37771;SDS011;23610;59.380;24.642;2023-09-19T23:48:37;8.45;;;1.73;;
37771;SDS011;23610;59.380;24.642;2023-09-19T23:53:42;10.02;;;1.80;;
37771;SDS011;23610;59.380;24.642;2023-09-19T23:58:44;8.77;;;2.10;;
